sensor_id;sensor_type;location;lat;lon;timestamp;P1;durP1;ratioP1;P2;durP2;ratioP2
29246;SDS011;16272;48.188;9.964;2022-11-20T00:02:18;9.10;;;2.80;;
29246;SDS011;16272;48.188;9.964;2022-11-20T00:04:43;8.10;;;2.00;;
29246;SDS011;16272;48.188;9.964;2022-11-20T00:07:08;8.37;;;2.23;;
29246;SDS011;16272;48.188;9.964;2022-11-20T00:09:34;6.60;;;2.10;;
29246;SDS011;16272;48.188;9.964;2022-11-20T00:11:59;8.40;;;2.43;;
29246;SDS011;16272;48.188;9.964;2022-11-20T00:14:24;8.57;;;2.47;;
29246;SDS011;16272;48.188;9.964;2022-11-20T00:16:50;8.53;;;2.30;;
29246;SDS011;16272;48.188;9.964;2022-11-20T00:19:15;9.33;;;2.37;;
29246;SDS011;16272;48.188;9.964;2022-11-20T00:21:40;7.63;;;2.40;;
29246;SDS011;16272;48.188;9.964;2022-11-20T00:24:07;8.03;;;2.30;;
29246;SDS011;16272;48.188;9.964;2022-11-20T00:26:34;8.10;;;2.43;;
29246;SDS011;16272;48.188;9.964;2022-11-20T00:29:00;7.60;;;2.33;;
29246;SDS011;16272;48.188;9.964;2022-11-20T00:31:26;8.15;;;2.30;;
29246;SDS011;16272;48.188;9.964;2022-11-20T00:33:52;7.10;;;2.20;;
29246;SDS011;16272;48.188;9.964;2022-11-20T00:36:21;7.93;;;2.20;;
29246;SDS011;16272;48.188;9.964;2022-11-20T00:38:52;7.60;;;2.30;;
29246;SDS011;16272;48.188;9.964;2022-11-20T00:41:18;9.38;;;2.65;;
29246;SDS011;16272;48.188;9.964;2022-11-20T00:43:44;8.43;;;2.37;;
29246;SDS011;16272;48.188;9.964;2022-11-20T00:46:12;8.97;;;2.77;;
29246;SDS011;16272;48.188;9.964;2022-11-20T00:48:39;8.57;;;2.50;;
29246;SDS011;16272;48.188;9.964;2022-11-20T00:51:04;9.82;;;2.83;;
29246;SDS011;16272;48.188;9.964;2022-11-20T00:53:30;8.57;;;2.83;;
29246;SDS011;16272;48.188;9.964;2022-11-20T00:55:56;8.40;;;2.80;;
29246;SDS011;16272;48.188;9.964;2022-11-20T00:58:28;8.57;;;3.15;;
29246;SDS011;16272;48.188;9.964;2022-11-20T01:00:59;9.02;;;2.75;;
29246;SDS011;16272;48.188;9.964;2022-11-20T01:03:26;7.72;;;2.30;;
29246;SDS011;16272;48.188;9.964;2022-11-20T01:05:51;9.73;;;2.67;;
29246;SDS011;16272;48.188;9.964;2022-11-20T01:08:17;8.50;;;2.77;;
29246;SDS011;16272;48.188;9.964;2022-11-20T01:10:42;7.77;;;2.27;;
29246;SDS011;16272;48.188;9.964;2022-11-20T01:13:07;8.67;;;2.90;;
29246;SDS011;16272;48.188;9.964;2022-11-20T01:15:51;10.35;;;2.67;;
29246;SDS011;16272;48.188;9.964;2022-11-20T01:18:16;9.73;;;2.50;;
29246;SDS011;16272;48.188;9.964;2022-11-20T01:20:42;9.80;;;2.67;;
29246;SDS011;16272;48.188;9.964;2022-11-20T01:23:07;8.57;;;2.47;;
29246;SDS011;16272;48.188;9.964;2022-11-20T01:25:34;8.23;;;2.40;;
29246;SDS011;16272;48.188;9.964;2022-11-20T01:27:59;9.45;;;2.65;;
29246;SDS011;16272;48.188;9.964;2022-11-20T01:30:24;8.70;;;2.80;;
29246;SDS011;16272;48.188;9.964;2022-11-20T01:32:50;8.70;;;2.70;;
29246;SDS011;16272;48.188;9.964;2022-11-20T01:35:15;8.32;;;2.45;;
29246;SDS011;16272;48.188;9.964;2022-11-20T01:37:41;9.33;;;2.77;;
29246;SDS011;16272;48.188;9.964;2022-11-20T01:40:06;8.83;;;2.90;;
29246;SDS011;16272;48.188;9.964;2022-11-20T01:42:32;8.52;;;2.97;;
29246;SDS011;16272;48.188;9.964;2022-11-20T01:48:18;8.80;;;2.63;;
29246;SDS011;16272;48.188;9.964;2022-11-20T01:50:46;9.88;;;2.70;;
29246;SDS011;16272;48.188;9.964;2022-11-20T01:53:13;9.13;;;2.60;;
29246;SDS011;16272;48.188;9.964;2022-11-20T01:55:44;8.33;;;2.70;;
29246;SDS011;16272;48.188;9.964;2022-11-20T01:58:14;8.43;;;2.65;;
29246;SDS011;16272;48.188;9.964;2022-11-20T02:00:41;8.43;;;2.78;;
29246;SDS011;16272;48.188;9.964;2022-11-20T02:03:09;11.27;;;3.05;;
29246;SDS011;16272;48.188;9.964;2022-11-20T02:05:40;9.52;;;3.17;;
29246;SDS011;16272;48.188;9.964;2022-11-20T02:08:08;9.43;;;3.20;;
29246;SDS011;16272;48.188;9.964;2022-11-20T02:10:33;9.30;;;2.35;;
29246;SDS011;16272;48.188;9.964;2022-11-20T02:12:59;8.43;;;2.50;;
29246;SDS011;16272;48.188;9.964;2022-11-20T02:15:43;7.85;;;2.70;;
29246;SDS011;16272;48.188;9.964;2022-11-20T02:18:09;9.03;;;3.13;;
29246;SDS011;16272;48.188;9.964;2022-11-20T02:20:36;9.93;;;2.85;;
29246;SDS011;16272;48.188;9.964;2022-11-20T02:25:41;8.18;;;2.78;;
29246;SDS011;16272;48.188;9.964;2022-11-20T02:28:08;9.85;;;3.10;;
29246;SDS011;16272;48.188;9.964;2022-11-20T02:30:35;9.00;;;2.90;;
29246;SDS011;16272;48.188;9.964;2022-11-20T02:33:00;9.73;;;3.22;;
29246;SDS011;16272;48.188;9.964;2022-11-20T02:37:52;8.63;;;2.93;;
29246;SDS011;16272;48.188;9.964;2022-11-20T02:40:19;11.13;;;3.80;;
29246;SDS011;16272;48.188;9.964;2022-11-20T02:42:45;12.10;;;3.17;;
29246;SDS011;16272;48.188;9.964;2022-11-20T02:45:10;11.07;;;3.50;;
29246;SDS011;16272;48.188;9.964;2022-11-20T02:47:36;7.57;;;2.67;;
29246;SDS011;16272;48.188;9.964;2022-11-20T02:50:02;9.07;;;3.13;;
29246;SDS011;16272;48.188;9.964;2022-11-20T02:52:28;9.10;;;3.28;;
29246;SDS011;16272;48.188;9.964;2022-11-20T02:54:55;8.07;;;2.80;;
29246;SDS011;16272;48.188;9.964;2022-11-20T02:57:20;9.07;;;2.88;;
29246;SDS011;16272;48.188;9.964;2022-11-20T02:59:45;9.07;;;2.90;;
29246;SDS011;16272;48.188;9.964;2022-11-20T03:02:11;10.53;;;2.77;;
29246;SDS011;16272;48.188;9.964;2022-11-20T03:04:36;11.53;;;3.27;;
29246;SDS011;16272;48.188;9.964;2022-11-20T03:07:01;7.97;;;2.53;;
29246;SDS011;16272;48.188;9.964;2022-11-20T03:09:27;7.80;;;2.60;;
29246;SDS011;16272;48.188;9.964;2022-11-20T03:11:52;8.80;;;2.80;;
29246;SDS011;16272;48.188;9.964;2022-11-20T03:14:17;7.18;;;2.40;;
29246;SDS011;16272;48.188;9.964;2022-11-20T03:16:43;9.17;;;2.70;;
29246;SDS011;16272;48.188;9.964;2022-11-20T03:19:08;9.13;;;2.83;;
29246;SDS011;16272;48.188;9.964;2022-11-20T03:21:34;7.80;;;2.57;;
29246;SDS011;16272;48.188;9.964;2022-11-20T03:24:00;8.55;;;2.33;;
29246;SDS011;16272;48.188;9.964;2022-11-20T03:26:26;7.70;;;2.60;;
29246;SDS011;16272;48.188;9.964;2022-11-20T03:28:56;8.05;;;2.42;;
29246;SDS011;16272;48.188;9.964;2022-11-20T03:31:24;8.52;;;2.50;;
29246;SDS011;16272;48.188;9.964;2022-11-20T03:33:51;7.60;;;2.50;;
29246;SDS011;16272;48.188;9.964;2022-11-20T03:36:17;9.20;;;2.53;;
29246;SDS011;16272;48.188;9.964;2022-11-20T03:38:43;9.52;;;2.67;;
29246;SDS011;16272;48.188;9.964;2022-11-20T03:41:13;7.40;;;2.40;;
29246;SDS011;16272;48.188;9.964;2022-11-20T03:43:41;8.03;;;2.60;;
29246;SDS011;16272;48.188;9.964;2022-11-20T03:46:06;7.65;;;2.45;;
29246;SDS011;16272;48.188;9.964;2022-11-20T03:48:32;9.02;;;2.85;;
29246;SDS011;16272;48.188;9.964;2022-11-20T03:51:11;8.60;;;2.60;;
29246;SDS011;16272;48.188;9.964;2022-11-20T03:53:39;8.60;;;2.97;;
29246;SDS011;16272;48.188;9.964;2022-11-20T03:56:06;7.38;;;2.40;;
29246;SDS011;16272;48.188;9.964;2022-11-20T03:58:33;8.27;;;2.53;;
29246;SDS011;16272;48.188;9.964;2022-11-20T04:01:05;9.70;;;3.20;;
29246;SDS011;16272;48.188;9.964;2022-11-20T04:03:43;8.40;;;2.75;;
29246;SDS011;16272;48.188;9.964;2022-11-20T04:06:10;8.45;;;3.05;;
29246;SDS011;16272;48.188;9.964;2022-11-20T04:08:38;7.65;;;2.53;;
29246;SDS011;16272;48.188;9.964;2022-11-20T04:11:47;8.90;;;2.60;;
29246;SDS011;16272;48.188;9.964;2022-11-20T04:13:57;7.80;;;2.30;;
29246;SDS011;16272;48.188;9.964;2022-11-20T04:16:24;8.15;;;2.53;;
29246;SDS011;16272;48.188;9.964;2022-11-20T04:18:54;8.50;;;2.42;;
29246;SDS011;16272;48.188;9.964;2022-11-20T04:21:21;8.90;;;2.95;;
29246;SDS011;16272;48.188;9.964;2022-11-20T04:23:46;8.40;;;2.83;;
29246;SDS011;16272;48.188;9.964;2022-11-20T04:26:12;8.97;;;3.17;;
29246;SDS011;16272;48.188;9.964;2022-11-20T04:28:37;8.33;;;2.87;;
29246;SDS011;16272;48.188;9.964;2022-11-20T04:31:04;8.05;;;2.70;;
29246;SDS011;16272;48.188;9.964;2022-11-20T04:33:37;8.45;;;2.75;;
29246;SDS011;16272;48.188;9.964;2022-11-20T04:36:03;9.60;;;2.90;;
29246;SDS011;16272;48.188;9.964;2022-11-20T04:38:35;9.18;;;3.10;;
29246;SDS011;16272;48.188;9.964;2022-11-20T04:41:01;9.30;;;3.20;;
29246;SDS011;16272;48.188;9.964;2022-11-20T04:43:28;9.73;;;3.15;;
29246;SDS011;16272;48.188;9.964;2022-11-20T04:45:55;8.90;;;3.20;;
29246;SDS011;16272;48.188;9.964;2022-11-20T04:48:22;9.38;;;3.35;;
29246;SDS011;16272;48.188;9.964;2022-11-20T04:50:48;9.25;;;3.30;;
29246;SDS011;16272;48.188;9.964;2022-11-20T04:53:13;11.50;;;3.50;;
29246;SDS011;16272;48.188;9.964;2022-11-20T04:55:38;10.30;;;3.30;;
29246;SDS011;16272;48.188;9.964;2022-11-20T04:58:04;9.77;;;3.37;;
29246;SDS011;16272;48.188;9.964;2022-11-20T05:00:29;10.10;;;3.47;;
29246;SDS011;16272;48.188;9.964;2022-11-20T05:02:55;10.23;;;4.10;;
29246;SDS011;16272;48.188;9.964;2022-11-20T05:05:20;10.87;;;3.23;;
29246;SDS011;16272;48.188;9.964;2022-11-20T05:07:45;12.37;;;4.17;;
29246;SDS011;16272;48.188;9.964;2022-11-20T05:10:10;10.20;;;3.63;;
29246;SDS011;16272;48.188;9.964;2022-11-20T05:12:36;11.18;;;3.92;;
29246;SDS011;16272;48.188;9.964;2022-11-20T05:15:02;9.10;;;3.43;;
29246;SDS011;16272;48.188;9.964;2022-11-20T05:17:27;11.30;;;3.90;;
29246;SDS011;16272;48.188;9.964;2022-11-20T05:19:52;11.35;;;3.70;;
29246;SDS011;16272;48.188;9.964;2022-11-20T05:22:18;10.40;;;3.80;;
29246;SDS011;16272;48.188;9.964;2022-11-20T05:24:43;10.23;;;3.77;;
29246;SDS011;16272;48.188;9.964;2022-11-20T05:27:08;10.77;;;3.27;;
29246;SDS011;16272;48.188;9.964;2022-11-20T05:29:34;10.17;;;3.80;;
29246;SDS011;16272;48.188;9.964;2022-11-20T05:31:59;11.17;;;3.70;;
29246;SDS011;16272;48.188;9.964;2022-11-20T05:34:24;10.57;;;3.60;;
29246;SDS011;16272;48.188;9.964;2022-11-20T05:36:50;12.30;;;3.83;;
29246;SDS011;16272;48.188;9.964;2022-11-20T05:39:15;12.83;;;3.67;;
29246;SDS011;16272;48.188;9.964;2022-11-20T05:41:40;10.23;;;3.53;;
29246;SDS011;16272;48.188;9.964;2022-11-20T05:44:06;9.90;;;3.70;;
29246;SDS011;16272;48.188;9.964;2022-11-20T05:46:31;11.23;;;3.40;;
29246;SDS011;16272;48.188;9.964;2022-11-20T05:48:57;10.97;;;3.23;;
29246;SDS011;16272;48.188;9.964;2022-11-20T05:51:23;9.63;;;3.33;;
29246;SDS011;16272;48.188;9.964;2022-11-20T05:53:49;10.18;;;3.30;;
29246;SDS011;16272;48.188;9.964;2022-11-20T05:56:15;9.37;;;3.13;;
29246;SDS011;16272;48.188;9.964;2022-11-20T05:58:42;10.35;;;3.63;;
29246;SDS011;16272;48.188;9.964;2022-11-20T06:01:18;9.83;;;3.43;;
29246;SDS011;16272;48.188;9.964;2022-11-20T06:03:49;10.20;;;3.53;;
29246;SDS011;16272;48.188;9.964;2022-11-20T06:06:15;10.38;;;3.20;;
29246;SDS011;16272;48.188;9.964;2022-11-20T06:08:41;9.07;;;3.17;;
29246;SDS011;16272;48.188;9.964;2022-11-20T06:11:08;10.40;;;3.33;;
29246;SDS011;16272;48.188;9.964;2022-11-20T06:13:34;9.18;;;3.40;;
29246;SDS011;16272;48.188;9.964;2022-11-20T06:16:00;10.67;;;3.30;;
29246;SDS011;16272;48.188;9.964;2022-11-20T06:18:28;9.43;;;3.10;;
29246;SDS011;16272;48.188;9.964;2022-11-20T06:20:59;10.48;;;3.42;;
29246;SDS011;16272;48.188;9.964;2022-11-20T06:23:27;11.27;;;3.78;;
29246;SDS011;16272;48.188;9.964;2022-11-20T06:25:53;11.30;;;3.70;;
29246;SDS011;16272;48.188;9.964;2022-11-20T06:28:18;10.53;;;3.67;;
29246;SDS011;16272;48.188;9.964;2022-11-20T06:30:44;8.60;;;3.00;;
29246;SDS011;16272;48.188;9.964;2022-11-20T06:33:10;9.77;;;3.50;;
29246;SDS011;16272;48.188;9.964;2022-11-20T06:35:35;12.03;;;3.77;;
29246;SDS011;16272;48.188;9.964;2022-11-20T06:38:01;10.80;;;3.53;;
29246;SDS011;16272;48.188;9.964;2022-11-20T06:40:26;9.60;;;3.67;;
29246;SDS011;16272;48.188;9.964;2022-11-20T06:42:53;12.63;;;3.50;;
29246;SDS011;16272;48.188;9.964;2022-11-20T06:45:18;10.68;;;2.92;;
29246;SDS011;16272;48.188;9.964;2022-11-20T06:47:44;10.53;;;3.30;;
29246;SDS011;16272;48.188;9.964;2022-11-20T06:50:09;9.53;;;3.23;;
29246;SDS011;16272;48.188;9.964;2022-11-20T06:52:34;10.93;;;3.50;;
29246;SDS011;16272;48.188;9.964;2022-11-20T06:54:59;8.73;;;2.90;;
29246;SDS011;16272;48.188;9.964;2022-11-20T06:57:25;9.50;;;3.30;;
29246;SDS011;16272;48.188;9.964;2022-11-20T06:59:50;10.27;;;3.40;;
29246;SDS011;16272;48.188;9.964;2022-11-20T07:02:15;9.90;;;2.47;;
29246;SDS011;16272;48.188;9.964;2022-11-20T07:04:41;10.83;;;3.60;;
29246;SDS011;16272;48.188;9.964;2022-11-20T07:07:06;10.33;;;3.13;;
29246;SDS011;16272;48.188;9.964;2022-11-20T07:09:32;10.90;;;3.37;;
29246;SDS011;16272;48.188;9.964;2022-11-20T07:11:58;9.68;;;2.80;;
29246;SDS011;16272;48.188;9.964;2022-11-20T07:14:23;9.83;;;3.27;;
29246;SDS011;16272;48.188;9.964;2022-11-20T07:16:49;9.07;;;3.23;;
29246;SDS011;16272;48.188;9.964;2022-11-20T07:19:14;9.20;;;3.13;;
29246;SDS011;16272;48.188;9.964;2022-11-20T07:21:39;10.13;;;3.00;;
29246;SDS011;16272;48.188;9.964;2022-11-20T07:24:04;9.57;;;3.40;;
29246;SDS011;16272;48.188;9.964;2022-11-20T07:26:30;9.10;;;3.03;;
29246;SDS011;16272;48.188;9.964;2022-11-20T07:28:55;7.77;;;2.60;;
29246;SDS011;16272;48.188;9.964;2022-11-20T07:31:20;9.13;;;3.10;;
29246;SDS011;16272;48.188;9.964;2022-11-20T07:33:46;9.77;;;3.03;;
29246;SDS011;16272;48.188;9.964;2022-11-20T07:36:11;9.60;;;2.90;;
29246;SDS011;16272;48.188;9.964;2022-11-20T07:38:37;10.37;;;3.23;;
29246;SDS011;16272;48.188;9.964;2022-11-20T07:41:02;9.20;;;3.05;;
29246;SDS011;16272;48.188;9.964;2022-11-20T07:43:28;9.37;;;2.80;;
29246;SDS011;16272;48.188;9.964;2022-11-20T07:45:56;7.63;;;2.53;;
29246;SDS011;16272;48.188;9.964;2022-11-20T07:48:23;9.13;;;2.95;;
29246;SDS011;16272;48.188;9.964;2022-11-20T07:50:52;9.77;;;2.70;;
29246;SDS011;16272;48.188;9.964;2022-11-20T07:53:18;8.80;;;2.80;;
29246;SDS011;16272;48.188;9.964;2022-11-20T07:55:45;11.63;;;2.85;;
29246;SDS011;16272;48.188;9.964;2022-11-20T07:58:11;9.10;;;2.97;;
29246;SDS011;16272;48.188;9.964;2022-11-20T08:00:36;8.43;;;2.97;;
29246;SDS011;16272;48.188;9.964;2022-11-20T08:03:03;7.90;;;2.30;;
29246;SDS011;16272;48.188;9.964;2022-11-20T08:05:29;10.55;;;2.90;;
29246;SDS011;16272;48.188;9.964;2022-11-20T08:07:54;7.87;;;2.70;;
29246;SDS011;16272;48.188;9.964;2022-11-20T08:10:20;7.97;;;2.60;;
29246;SDS011;16272;48.188;9.964;2022-11-20T08:12:52;8.47;;;2.60;;
29246;SDS011;16272;48.188;9.964;2022-11-20T08:15:37;8.80;;;2.58;;
29246;SDS011;16272;48.188;9.964;2022-11-20T08:18:07;8.45;;;2.53;;
29246;SDS011;16272;48.188;9.964;2022-11-20T08:20:35;8.38;;;2.20;;
29246;SDS011;16272;48.188;9.964;2022-11-20T08:23:01;11.87;;;2.57;;
29246;SDS011;16272;48.188;9.964;2022-11-20T08:25:31;8.05;;;2.10;;
29246;SDS011;16272;48.188;9.964;2022-11-20T08:28:01;8.10;;;2.63;;
29246;SDS011;16272;48.188;9.964;2022-11-20T08:30:28;7.50;;;2.45;;
29246;SDS011;16272;48.188;9.964;2022-11-20T08:32:54;8.35;;;2.50;;
29246;SDS011;16272;48.188;9.964;2022-11-20T08:35:20;8.15;;;2.25;;
29246;SDS011;16272;48.188;9.964;2022-11-20T08:37:46;7.45;;;2.70;;
29246;SDS011;16272;48.188;9.964;2022-11-20T08:40:12;8.40;;;2.20;;
29246;SDS011;16272;48.188;9.964;2022-11-20T08:42:45;7.53;;;2.42;;
29246;SDS011;16272;48.188;9.964;2022-11-20T08:45:14;8.23;;;2.17;;
29246;SDS011;16272;48.188;9.964;2022-11-20T08:47:41;8.13;;;2.20;;
29246;SDS011;16272;48.188;9.964;2022-11-20T08:50:07;8.20;;;2.05;;
29246;SDS011;16272;48.188;9.964;2022-11-20T08:52:34;6.97;;;1.63;;
29246;SDS011;16272;48.188;9.964;2022-11-20T08:54:59;7.80;;;2.27;;
29246;SDS011;16272;48.188;9.964;2022-11-20T08:57:24;6.73;;;1.77;;
29246;SDS011;16272;48.188;9.964;2022-11-20T08:59:50;6.90;;;2.07;;
29246;SDS011;16272;48.188;9.964;2022-11-20T09:02:15;6.90;;;2.07;;
29246;SDS011;16272;48.188;9.964;2022-11-20T09:04:40;6.57;;;2.03;;
29246;SDS011;16272;48.188;9.964;2022-11-20T09:07:05;7.03;;;1.73;;
29246;SDS011;16272;48.188;9.964;2022-11-20T09:09:31;7.27;;;2.10;;
29246;SDS011;16272;48.188;9.964;2022-11-20T09:11:57;7.05;;;1.80;;
29246;SDS011;16272;48.188;9.964;2022-11-20T09:14:23;9.27;;;2.40;;
29246;SDS011;16272;48.188;9.964;2022-11-20T09:16:53;7.13;;;2.00;;
29246;SDS011;16272;48.188;9.964;2022-11-20T09:19:19;6.57;;;1.90;;
29246;SDS011;16272;48.188;9.964;2022-11-20T09:21:44;6.80;;;2.00;;
29246;SDS011;16272;48.188;9.964;2022-11-20T09:24:10;6.13;;;1.80;;
29246;SDS011;16272;48.188;9.964;2022-11-20T09:26:35;7.15;;;1.73;;
29246;SDS011;16272;48.188;9.964;2022-11-20T09:29:00;5.10;;;1.27;;
29246;SDS011;16272;48.188;9.964;2022-11-20T09:31:26;5.70;;;1.40;;
29246;SDS011;16272;48.188;9.964;2022-11-20T09:33:51;6.67;;;1.60;;
29246;SDS011;16272;48.188;9.964;2022-11-20T09:36:18;6.30;;;1.42;;
29246;SDS011;16272;48.188;9.964;2022-11-20T09:38:44;6.30;;;1.43;;
29246;SDS011;16272;48.188;9.964;2022-11-20T09:44:35;5.15;;;1.33;;
29246;SDS011;16272;48.188;9.964;2022-11-20T09:47:26;5.30;;;1.10;;
29246;SDS011;16272;48.188;9.964;2022-11-20T09:55:24;4.40;;;1.00;;
29246;SDS011;16272;48.188;9.964;2022-11-20T09:57:51;6.13;;;1.20;;
29246;SDS011;16272;48.188;9.964;2022-11-20T10:00:17;4.53;;;0.98;;
29246;SDS011;16272;48.188;9.964;2022-11-20T10:03:00;5.30;;;1.27;;
29246;SDS011;16272;48.188;9.964;2022-11-20T10:05:29;5.40;;;1.10;;
29246;SDS011;16272;48.188;9.964;2022-11-20T10:10:42;5.32;;;1.10;;
29246;SDS011;16272;48.188;9.964;2022-11-20T10:13:26;4.70;;;1.00;;
29246;SDS011;16272;48.188;9.964;2022-11-20T10:19:26;4.00;;;0.80;;
29246;SDS011;16272;48.188;9.964;2022-11-20T10:25:06;5.38;;;1.30;;
29246;SDS011;16272;48.188;9.964;2022-11-20T10:30:09;4.93;;;0.90;;
29246;SDS011;16272;48.188;9.964;2022-11-20T10:32:41;3.43;;;0.70;;
29246;SDS011;16272;48.188;9.964;2022-11-20T10:37:56;3.50;;;0.75;;
29246;SDS011;16272;48.188;9.964;2022-11-20T10:43:04;4.68;;;0.90;;
29246;SDS011;16272;48.188;9.964;2022-11-20T10:45:52;5.07;;;1.17;;
29246;SDS011;16272;48.188;9.964;2022-11-20T10:48:23;3.88;;;0.90;;
29246;SDS011;16272;48.188;9.964;2022-11-20T10:54:35;4.13;;;0.90;;
29246;SDS011;16272;48.188;9.964;2022-11-20T11:02:33;4.43;;;1.00;;
29246;SDS011;16272;48.188;9.964;2022-11-20T11:08:12;4.13;;;0.95;;
29246;SDS011;16272;48.188;9.964;2022-11-20T11:10:42;4.25;;;1.00;;
29246;SDS011;16272;48.188;9.964;2022-11-20T11:13:22;4.53;;;1.00;;
29246;SDS011;16272;48.188;9.964;2022-11-20T11:15:50;4.28;;;0.88;;
29246;SDS011;16272;48.188;9.964;2022-11-20T11:18:32;4.30;;;0.90;;
29246;SDS011;16272;48.188;9.964;2022-11-20T11:21:03;3.20;;;0.70;;
29246;SDS011;16272;48.188;9.964;2022-11-20T11:23:34;4.00;;;0.90;;
29246;SDS011;16272;48.188;9.964;2022-11-20T11:26:00;4.87;;;0.90;;
29246;SDS011;16272;48.188;9.964;2022-11-20T11:28:27;4.05;;;0.90;;
29246;SDS011;16272;48.188;9.964;2022-11-20T11:30:53;4.63;;;1.00;;
29246;SDS011;16272;48.188;9.964;2022-11-20T11:35:49;3.97;;;0.85;;
29246;SDS011;16272;48.188;9.964;2022-11-20T11:38:19;4.87;;;1.03;;
29246;SDS011;16272;48.188;9.964;2022-11-20T11:40:48;4.57;;;1.02;;
29246;SDS011;16272;48.188;9.964;2022-11-20T11:43:19;4.80;;;1.13;;
29246;SDS011;16272;48.188;9.964;2022-11-20T11:46:08;5.13;;;1.50;;
29246;SDS011;16272;48.188;9.964;2022-11-20T11:49:30;5.10;;;1.20;;
29246;SDS011;16272;48.188;9.964;2022-11-20T11:51:41;5.53;;;1.17;;
29246;SDS011;16272;48.188;9.964;2022-11-20T11:54:25;5.55;;;1.70;;
29246;SDS011;16272;48.188;9.964;2022-11-20T11:56:55;4.43;;;1.10;;
29246;SDS011;16272;48.188;9.964;2022-11-20T11:59:27;4.80;;;1.30;;
29246;SDS011;16272;48.188;9.964;2022-11-20T12:02:03;5.03;;;1.30;;
29246;SDS011;16272;48.188;9.964;2022-11-20T12:04:50;4.90;;;1.27;;
29246;SDS011;16272;48.188;9.964;2022-11-20T12:07:36;5.15;;;1.10;;
29246;SDS011;16272;48.188;9.964;2022-11-20T12:10:08;4.80;;;1.17;;
29246;SDS011;16272;48.188;9.964;2022-11-20T12:12:45;5.00;;;1.13;;
29246;SDS011;16272;48.188;9.964;2022-11-20T12:15:21;4.43;;;1.17;;
29246;SDS011;16272;48.188;9.964;2022-11-20T12:17:51;4.55;;;0.90;;
29246;SDS011;16272;48.188;9.964;2022-11-20T12:20:16;6.10;;;1.20;;
29246;SDS011;16272;48.188;9.964;2022-11-20T12:25:34;5.77;;;1.17;;
29246;SDS011;16272;48.188;9.964;2022-11-20T12:28:08;5.25;;;1.05;;
29246;SDS011;16272;48.188;9.964;2022-11-20T12:30:42;4.85;;;1.20;;
29246;SDS011;16272;48.188;9.964;2022-11-20T12:33:25;4.90;;;1.15;;
29246;SDS011;16272;48.188;9.964;2022-11-20T12:36:19;4.30;;;1.00;;
29246;SDS011;16272;48.188;9.964;2022-11-20T12:48:10;5.40;;;1.10;;
29246;SDS011;16272;48.188;9.964;2022-11-20T12:56:17;4.40;;;0.73;;
29246;SDS011;16272;48.188;9.964;2022-11-20T13:04:16;3.92;;;0.80;;
29246;SDS011;16272;48.188;9.964;2022-11-20T13:06:46;4.87;;;1.13;;
29246;SDS011;16272;48.188;9.964;2022-11-20T13:09:12;5.00;;;1.30;;
29246;SDS011;16272;48.188;9.964;2022-11-20T13:11:43;4.90;;;1.00;;
29246;SDS011;16272;48.188;9.964;2022-11-20T13:14:35;3.83;;;0.80;;
29246;SDS011;16272;48.188;9.964;2022-11-20T13:17:26;4.28;;;1.10;;
29246;SDS011;16272;48.188;9.964;2022-11-20T13:19:56;4.90;;;0.70;;
29246;SDS011;16272;48.188;9.964;2022-11-20T13:22:24;4.60;;;0.80;;
29246;SDS011;16272;48.188;9.964;2022-11-20T13:25:09;3.43;;;0.53;;
29246;SDS011;16272;48.188;9.964;2022-11-20T13:27:35;3.65;;;0.70;;
29246;SDS011;16272;48.188;9.964;2022-11-20T13:30:17;5.27;;;0.80;;
29246;SDS011;16272;48.188;9.964;2022-11-20T13:33:20;3.13;;;0.50;;
29246;SDS011;16272;48.188;9.964;2022-11-20T13:38:24;3.22;;;0.60;;
29246;SDS011;16272;48.188;9.964;2022-11-20T13:40:52;3.63;;;0.60;;
29246;SDS011;16272;48.188;9.964;2022-11-20T13:43:43;3.83;;;0.60;;
29246;SDS011;16272;48.188;9.964;2022-11-20T13:46:09;4.38;;;0.80;;
29246;SDS011;16272;48.188;9.964;2022-11-20T13:48:47;2.97;;;0.60;;
29246;SDS011;16272;48.188;9.964;2022-11-20T13:51:14;2.65;;;0.57;;
29246;SDS011;16272;48.188;9.964;2022-11-20T13:57:30;3.03;;;0.60;;
29246;SDS011;16272;48.188;9.964;2022-11-20T14:02:39;2.55;;;0.85;;
29246;SDS011;16272;48.188;9.964;2022-11-20T14:05:11;5.22;;;1.60;;
29246;SDS011;16272;48.188;9.964;2022-11-20T14:07:45;3.85;;;0.80;;
29246;SDS011;16272;48.188;9.964;2022-11-20T14:10:24;4.53;;;0.90;;
29246;SDS011;16272;48.188;9.964;2022-11-20T14:12:53;3.58;;;0.80;;
29246;SDS011;16272;48.188;9.964;2022-11-20T14:15:27;5.60;;;0.80;;
29246;SDS011;16272;48.188;9.964;2022-11-20T14:17:57;3.75;;;0.65;;
29246;SDS011;16272;48.188;9.964;2022-11-20T14:20:25;4.50;;;0.90;;
29246;SDS011;16272;48.188;9.964;2022-11-20T14:22:53;4.32;;;0.75;;
29246;SDS011;16272;48.188;9.964;2022-11-20T14:25:21;5.13;;;0.80;;
29246;SDS011;16272;48.188;9.964;2022-11-20T14:27:59;3.80;;;0.70;;
29246;SDS011;16272;48.188;9.964;2022-11-20T14:30:27;3.97;;;0.73;;
29246;SDS011;16272;48.188;9.964;2022-11-20T14:33:01;4.32;;;1.00;;
29246;SDS011;16272;48.188;9.964;2022-11-20T14:35:29;4.82;;;0.93;;
29246;SDS011;16272;48.188;9.964;2022-11-20T14:37:56;4.68;;;1.00;;
29246;SDS011;16272;48.188;9.964;2022-11-20T14:40:23;5.07;;;0.90;;
29246;SDS011;16272;48.188;9.964;2022-11-20T14:42:49;4.53;;;1.15;;
29246;SDS011;16272;48.188;9.964;2022-11-20T14:45:15;4.13;;;0.85;;
29246;SDS011;16272;48.188;9.964;2022-11-20T14:47:41;4.43;;;1.00;;
29246;SDS011;16272;48.188;9.964;2022-11-20T14:50:28;4.35;;;0.90;;
29246;SDS011;16272;48.188;9.964;2022-11-20T14:52:55;4.60;;;1.30;;
29246;SDS011;16272;48.188;9.964;2022-11-20T14:55:39;4.32;;;0.80;;
29246;SDS011;16272;48.188;9.964;2022-11-20T14:58:18;4.65;;;0.93;;
29246;SDS011;16272;48.188;9.964;2022-11-20T15:00:53;4.23;;;0.83;;
29246;SDS011;16272;48.188;9.964;2022-11-20T15:03:20;3.88;;;0.80;;
29246;SDS011;16272;48.188;9.964;2022-11-20T15:05:47;3.30;;;0.70;;
29246;SDS011;16272;48.188;9.964;2022-11-20T15:08:14;3.40;;;0.52;;
29246;SDS011;16272;48.188;9.964;2022-11-20T15:10:47;3.40;;;0.60;;
29246;SDS011;16272;48.188;9.964;2022-11-20T15:15:56;3.15;;;0.60;;
29246;SDS011;16272;48.188;9.964;2022-11-20T15:18:27;2.70;;;0.50;;
29246;SDS011;16272;48.188;9.964;2022-11-20T15:20:55;3.80;;;0.70;;
29246;SDS011;16272;48.188;9.964;2022-11-20T15:23:22;2.35;;;0.50;;
29246;SDS011;16272;48.188;9.964;2022-11-20T15:25:48;3.65;;;0.80;;
29246;SDS011;16272;48.188;9.964;2022-11-20T15:28:18;3.50;;;0.60;;
29246;SDS011;16272;48.188;9.964;2022-11-20T15:30:46;3.17;;;0.52;;
29246;SDS011;16272;48.188;9.964;2022-11-20T15:33:14;3.78;;;0.65;;
29246;SDS011;16272;48.188;9.964;2022-11-20T15:35:41;4.18;;;1.00;;
29246;SDS011;16272;48.188;9.964;2022-11-20T15:38:06;3.30;;;0.60;;
29246;SDS011;16272;48.188;9.964;2022-11-20T15:40:32;3.77;;;0.80;;
29246;SDS011;16272;48.188;9.964;2022-11-20T15:42:57;3.03;;;0.60;;
29246;SDS011;16272;48.188;9.964;2022-11-20T15:45:38;3.27;;;0.67;;
29246;SDS011;16272;48.188;9.964;2022-11-20T15:53:52;3.72;;;0.80;;
29246;SDS011;16272;48.188;9.964;2022-11-20T15:56:20;5.32;;;0.93;;
29246;SDS011;16272;48.188;9.964;2022-11-20T15:58:45;4.40;;;0.80;;
29246;SDS011;16272;48.188;9.964;2022-11-20T16:01:11;4.60;;;0.97;;
29246;SDS011;16272;48.188;9.964;2022-11-20T16:03:38;5.00;;;0.70;;
29246;SDS011;16272;48.188;9.964;2022-11-20T16:06:04;4.80;;;1.10;;
29246;SDS011;16272;48.188;9.964;2022-11-20T16:08:29;3.95;;;0.70;;
29246;SDS011;16272;48.188;9.964;2022-11-20T16:10:55;3.70;;;0.60;;
29246;SDS011;16272;48.188;9.964;2022-11-20T16:13:20;4.10;;;0.60;;
29246;SDS011;16272;48.188;9.964;2022-11-20T16:16:05;3.75;;;0.70;;
29246;SDS011;16272;48.188;9.964;2022-11-20T16:18:34;4.20;;;0.70;;
29246;SDS011;16272;48.188;9.964;2022-11-20T16:20:59;4.50;;;0.93;;
29246;SDS011;16272;48.188;9.964;2022-11-20T16:23:25;4.27;;;0.93;;
29246;SDS011;16272;48.188;9.964;2022-11-20T16:25:50;4.50;;;0.90;;